createdAt,value
2018-12-02T00:01:53.641Z,7.70
2018-12-02T00:04:21.964Z,7.70
2018-12-02T00:06:50.283Z,7.70
2018-12-02T00:09:18.653Z,7.70
2018-12-02T00:11:47.319Z,7.70
2018-12-02T00:14:15.604Z,7.70
2018-12-02T00:16:43.927Z,7.70
2018-12-02T00:19:12.228Z,7.70
2018-12-02T00:21:40.493Z,7.70
2018-12-02T00:24:08.868Z,7.70
2018-12-02T00:26:37.217Z,7.70
2018-12-02T00:29:05.555Z,7.70
2018-12-02T00:31:33.777Z,7.70
2018-12-02T00:34:02.486Z,7.70
2018-12-02T00:36:30.747Z,7.70
2018-12-02T00:38:59.190Z,7.70
2018-12-02T00:41:27.440Z,7.70
2018-12-02T00:43:55.798Z,7.70
2018-12-02T00:46:24.054Z,7.80
2018-12-02T00:48:52.704Z,7.80
2018-12-02T00:51:21.010Z,7.80
2018-12-02T00:53:49.372Z,7.70
2018-12-02T00:56:16.703Z,7.80
2018-12-02T00:58:44.963Z,7.80
2018-12-02T01:01:13.313Z,7.80
2018-12-02T01:03:41.574Z,7.80
2018-12-02T01:06:09.991Z,7.80
2018-12-02T01:08:38.264Z,7.80
2018-12-02T01:11:06.973Z,7.80
2018-12-02T01:13:35.262Z,7.90
2018-12-02T01:16:03.582Z,7.80
2018-12-02T01:18:31.869Z,7.90
2018-12-02T01:21:00.181Z,7.90
2018-12-02T01:23:28.446Z,7.90
2018-12-02T01:25:56.838Z,7.90
2018-12-02T01:28:25.108Z,7.90
2018-12-02T01:30:53.403Z,7.90
2018-12-02T01:33:21.656Z,7.90
2018-12-02T01:35:49.948Z,7.90
2018-12-02T01:38:18.231Z,7.90
2018-12-02T01:40:48.604Z,7.90
2018-12-02T01:43:16.963Z,7.90
2018-12-02T01:45:45.217Z,7.90
2018-12-02T01:48:13.489Z,7.90
2018-12-02T01:50:41.776Z,7.90
2018-12-02T01:53:10.141Z,7.90
2018-12-02T01:55:38.444Z,7.90
2018-12-02T01:58:06.834Z,7.90
2018-12-02T02:00:35.088Z,7.90
2018-12-02T02:03:03.433Z,7.90
2018-12-02T02:05:31.743Z,7.90
2018-12-02T02:08:01.048Z,7.80
2018-12-02T02:10:29.400Z,7.90
2018-12-02T02:12:57.683Z,7.90
2018-12-02T02:15:26.054Z,7.80
2018-12-02T02:17:54.336Z,7.90
2018-12-02T02:20:24.415Z,7.90
2018-12-02T02:22:52.804Z,7.90
2018-12-02T02:27:58.303Z,7.80
2018-12-02T02:30:28.694Z,7.80
2018-12-02T02:32:57.057Z,7.80
2018-12-02T02:35:25.415Z,7.80
2018-12-02T02:37:54.764Z,7.80
2018-12-02T02:40:24.993Z,7.80
2018-12-02T02:42:53.279Z,7.80
2018-12-02T02:45:21.619Z,7.80
2018-12-02T02:47:49.885Z,7.80
2018-12-02T02:50:20.103Z,7.80
2018-12-02T02:52:50.518Z,7.80
2018-12-02T02:55:18.909Z,7.80
2018-12-02T02:57:47.209Z,7.80
2018-12-02T03:00:17.345Z,7.80
2018-12-02T03:02:45.638Z,7.80
2018-12-02T03:05:14.528Z,7.80
2018-12-02T03:07:42.821Z,7.80
2018-12-02T03:10:13.035Z,7.80
2018-12-02T03:12:41.442Z,7.90
2018-12-02T03:15:12.600Z,7.80
2018-12-02T03:17:40.942Z,7.80
2018-12-02T03:20:11.240Z,7.80
2018-12-02T03:22:39.921Z,7.80
2018-12-02T03:25:09.607Z,7.80
2018-12-02T03:27:37.878Z,7.80
2018-12-02T03:30:10.652Z,7.90
2018-12-02T03:32:39.540Z,7.90
2018-12-02T03:35:09.572Z,7.80
2018-12-02T03:37:37.879Z,7.80
2018-12-02T03:40:10.306Z,7.80
2018-12-02T03:42:38.621Z,7.80
2018-12-02T03:45:09.701Z,7.80
2018-12-02T03:47:38.094Z,7.80
2018-12-02T03:50:17.447Z,7.80
2018-12-02T03:52:43.606Z,7.80
2018-12-02T03:55:12.000Z,7.80
2018-12-02T03:57:40.249Z,7.80
2018-12-02T04:00:18.817Z,7.80
2018-12-02T04:02:47.281Z,7.80
2018-12-02T04:05:16.604Z,7.80
2018-12-02T04:07:44.907Z,7.80
2018-12-02T04:10:14.024Z,7.80
2018-12-02T04:12:42.356Z,7.80
2018-12-02T04:15:13.288Z,7.80
2018-12-02T04:17:41.836Z,7.90
2018-12-02T04:20:11.433Z,7.80
2018-12-02T04:22:39.761Z,7.90
2018-12-02T04:25:09.470Z,7.90
2018-12-02T04:27:37.733Z,7.90
2018-12-02T04:30:12.152Z,7.90
2018-12-02T04:32:40.782Z,7.90
2018-12-02T04:35:11.575Z,7.90
2018-12-02T04:37:41.294Z,7.90
2018-12-02T04:40:10.624Z,7.90
2018-12-02T04:42:38.921Z,7.90
2018-12-02T04:45:12.439Z,7.90
2018-12-02T04:47:40.785Z,7.90
2018-12-02T04:50:12.506Z,7.90
2018-12-02T04:52:40.736Z,7.80
2018-12-02T04:55:09.644Z,7.90
2018-12-02T04:57:37.888Z,7.90
2018-12-02T05:00:08.704Z,7.90
2018-12-02T05:02:36.960Z,7.90
2018-12-02T05:07:41.996Z,7.90
2018-12-02T05:10:16.106Z,7.90
2018-12-02T05:12:44.473Z,7.90
2018-12-02T05:15:15.512Z,7.90
2018-12-02T05:17:43.729Z,7.90
2018-12-02T05:20:13.077Z,7.90
2018-12-02T05:22:41.359Z,7.90
2018-12-02T05:25:17.038Z,7.90
2018-12-02T05:27:39.671Z,7.90
2018-12-02T05:30:13.032Z,8.00
2018-12-02T05:32:41.342Z,7.90
2018-12-02T05:35:10.948Z,7.90
2018-12-02T05:37:39.319Z,8.00
2018-12-02T05:40:13.370Z,7.90
2018-12-02T05:42:41.640Z,8.00
2018-12-02T05:45:13.651Z,8.00
2018-12-02T05:47:41.995Z,8.00
2018-12-02T05:50:13.371Z,8.00
2018-12-02T05:52:41.793Z,8.00
2018-12-02T05:55:14.331Z,8.00
2018-12-02T05:57:42.773Z,8.00
2018-12-02T06:00:14.395Z,8.00
2018-12-02T06:02:42.643Z,8.00
2018-12-02T06:05:11.532Z,8.00
2018-12-02T06:07:39.865Z,8.00
2018-12-02T06:10:09.735Z,8.00
2018-12-02T06:12:38.028Z,8.00
2018-12-02T06:15:08.707Z,8.00
2018-12-02T06:17:37.033Z,8.00
2018-12-02T06:20:08.284Z,8.00
2018-12-02T06:22:36.659Z,8.00
2018-12-02T06:25:05.479Z,8.00
2018-12-02T06:27:33.724Z,8.00
2018-12-02T06:30:02.031Z,8.00
2018-12-02T06:32:30.286Z,8.00
2018-12-02T06:34:58.860Z,8.00
2018-12-02T06:37:27.162Z,8.00
2018-12-02T06:39:55.502Z,8.00
2018-12-02T06:42:23.877Z,8.00
2018-12-02T06:44:52.249Z,8.10
2018-12-02T06:47:20.525Z,8.10
2018-12-02T06:49:48.874Z,8.00
2018-12-02T06:52:17.180Z,8.10
2018-12-02T06:54:45.650Z,8.10
2018-12-02T06:57:13.971Z,8.10
2018-12-02T06:59:47.544Z,8.10
2018-12-02T07:02:37.186Z,8.10
2018-12-02T07:05:07.407Z,8.10
2018-12-02T07:07:35.749Z,8.10
2018-12-02T07:10:04.834Z,8.10
2018-12-02T07:12:33.123Z,8.10
2018-12-02T07:15:01.543Z,8.10
2018-12-02T07:17:29.803Z,8.10
2018-12-02T07:37:05.849Z,8.20
2018-12-02T07:39:52.160Z,8.20
2018-12-02T07:42:20.537Z,8.20
2018-12-02T07:44:48.832Z,8.20
2018-12-02T07:47:17.133Z,8.20
2018-12-02T07:49:45.391Z,8.20
2018-12-02T07:52:13.738Z,8.20
2018-12-02T07:54:42.162Z,8.20
2018-12-02T07:57:10.654Z,8.20
2018-12-02T07:59:38.943Z,8.20
2018-12-02T08:02:07.321Z,8.20
2018-12-02T08:04:35.645Z,8.30
2018-12-02T08:07:03.963Z,8.30
2018-12-02T08:09:32.351Z,8.30
2018-12-02T08:12:00.642Z,8.20
2018-12-02T08:14:29.043Z,8.30
2018-12-02T08:16:57.318Z,8.30
2018-12-02T08:19:25.714Z,8.30
2018-12-02T08:21:54.050Z,8.30
2018-12-02T08:24:22.589Z,8.30
2018-12-02T08:26:50.857Z,8.30
2018-12-02T08:29:19.279Z,8.30
2018-12-02T08:31:47.607Z,8.30
2018-12-02T08:34:15.985Z,8.40
2018-12-02T08:36:44.292Z,8.40
2018-12-02T08:39:12.731Z,8.40
2018-12-02T08:41:41.076Z,8.40
2018-12-02T08:44:09.505Z,8.40
2018-12-02T08:46:37.779Z,8.50
2018-12-02T08:52:00.557Z,8.50
2018-12-02T08:54:28.937Z,8.50
2018-12-02T08:56:57.293Z,8.50
2018-12-02T08:59:25.758Z,8.50
2018-12-02T09:01:54.051Z,8.50
2018-12-02T09:04:22.466Z,8.50
2018-12-02T09:06:50.773Z,8.60
2018-12-02T09:09:19.107Z,8.60
2018-12-02T09:11:47.392Z,8.60
2018-12-02T09:14:15.800Z,8.60
2018-12-02T09:16:44.916Z,8.60
2018-12-02T09:19:13.253Z,8.70
2018-12-02T09:21:41.661Z,8.70
2018-12-02T09:24:10.047Z,8.70
2018-12-02T09:26:38.321Z,8.70
2018-12-02T09:29:06.751Z,8.70
2018-12-02T09:31:35.088Z,8.70
2018-12-02T09:34:03.467Z,8.80
2018-12-02T09:36:31.734Z,8.80
2018-12-02T09:39:00.025Z,8.80
2018-12-02T09:41:28.350Z,8.80
2018-12-02T09:43:56.718Z,8.80
2018-12-02T09:46:25.050Z,8.80
2018-12-02T09:48:53.400Z,8.90
2018-12-02T09:51:21.688Z,8.90
2018-12-02T09:53:50.143Z,8.90
2018-12-02T09:56:18.469Z,8.90
2018-12-02T09:58:46.779Z,8.90
2018-12-02T10:01:15.325Z,8.90
2018-12-02T10:03:43.619Z,9.00
2018-12-02T10:06:11.994Z,8.90
2018-12-02T10:08:40.302Z,9.00
2018-12-02T10:11:08.617Z,9.00
2018-12-02T10:13:36.899Z,9.00
2018-12-02T10:16:05.257Z,9.00
2018-12-02T10:18:33.556Z,9.00
2018-12-02T10:21:02.352Z,9.10
2018-12-02T10:23:30.657Z,9.10
2018-12-02T10:25:58.937Z,9.10
2018-12-02T10:28:27.243Z,9.10
2018-12-02T10:30:55.622Z,9.10
2018-12-02T10:33:23.958Z,9.10
2018-12-02T10:35:52.262Z,9.10
2018-12-02T10:38:20.652Z,9.10
2018-12-02T10:40:48.937Z,9.20
2018-12-02T10:43:17.205Z,9.20
2018-12-02T10:45:45.561Z,9.20
2018-12-02T10:48:13.860Z,9.20
2018-12-02T10:50:42.158Z,9.20
2018-12-02T10:53:12.891Z,9.20
2018-12-02T10:55:53.571Z,9.30
2018-12-02T10:58:23.744Z,9.30
2018-12-02T11:00:58.681Z,9.30
2018-12-02T11:03:26.992Z,9.40
2018-12-02T11:05:55.396Z,9.40
2018-12-02T11:08:23.694Z,9.40
2018-12-02T11:10:52.399Z,9.40
2018-12-02T11:13:20.745Z,9.50
2018-12-02T11:15:49.182Z,9.50
2018-12-02T11:18:17.555Z,9.50
2018-12-02T11:20:45.935Z,9.50
2018-12-02T11:23:14.201Z,9.50
2018-12-02T11:25:42.556Z,9.60
2018-12-02T11:28:11.496Z,9.60
2018-12-02T11:30:39.989Z,9.60
2018-12-02T11:33:08.452Z,9.60
2018-12-02T11:35:36.770Z,9.60
2018-12-02T11:38:05.782Z,9.70
2018-12-02T11:40:34.114Z,9.70
2018-12-02T11:43:02.419Z,9.70
2018-12-02T11:45:30.741Z,9.70
2018-12-02T11:47:59.428Z,9.80
2018-12-02T11:50:27.801Z,9.80
2018-12-02T11:52:56.102Z,9.80
2018-12-02T11:55:24.503Z,9.90
2018-12-02T11:57:52.960Z,9.90
2018-12-02T12:00:31.370Z,9.90
2018-12-02T12:03:00.171Z,10.00
2018-12-02T12:05:28.595Z,10.00
2018-12-02T12:07:56.996Z,10.10
2018-12-02T12:10:27.198Z,10.10
2018-12-02T12:12:56.614Z,10.20
2018-12-02T12:15:25.772Z,10.20
2018-12-02T12:17:54.886Z,10.30
2018-12-02T12:20:28.097Z,10.30
2018-12-02T12:22:56.614Z,10.40
2018-12-02T12:25:24.945Z,10.40
2018-12-02T12:27:54.409Z,10.40
2018-12-02T12:30:23.693Z,10.50
2018-12-02T12:32:52.318Z,10.60
2018-12-02T12:35:20.689Z,10.60
2018-12-02T12:37:49.008Z,10.60
2018-12-02T12:40:21.417Z,10.70
2018-12-02T12:42:59.166Z,10.70
2018-12-02T12:45:27.486Z,10.70
2018-12-02T12:47:56.292Z,10.80
2018-12-02T12:50:24.590Z,10.90
2018-12-02T12:52:52.864Z,10.90
2018-12-02T12:55:21.219Z,11.00
2018-12-02T13:00:46.368Z,11.00
2018-12-02T13:03:14.784Z,11.10
2018-12-02T13:05:43.282Z,11.10
2018-12-02T13:08:12.887Z,11.20
2018-12-02T13:10:41.216Z,11.20
2018-12-02T13:13:09.578Z,11.20
2018-12-02T13:15:37.931Z,11.30
2018-12-02T13:18:08.630Z,11.30
2018-12-02T13:20:42.577Z,11.30
2018-12-02T13:23:10.932Z,11.30
2018-12-02T13:25:39.302Z,11.40
2018-12-02T13:28:08.122Z,11.40
2018-12-02T13:30:36.421Z,11.40
2018-12-02T13:33:05.222Z,11.40
2018-12-02T13:35:33.504Z,11.50
2018-12-02T13:38:01.809Z,11.50
2018-12-02T13:40:30.098Z,11.50
2018-12-02T13:43:02.534Z,11.50
2018-12-02T13:45:31.664Z,11.50
2018-12-02T13:48:00.072Z,11.60
2018-12-02T13:50:28.439Z,11.60
2018-12-02T13:52:57.379Z,11.60
2018-12-02T13:55:29.167Z,11.60
2018-12-02T13:57:58.008Z,11.60
2018-12-02T14:00:26.789Z,11.60
2018-12-02T14:02:57.395Z,11.70
2018-12-02T14:05:25.762Z,11.70
2018-12-02T14:07:54.118Z,11.70
2018-12-02T14:10:22.555Z,11.70
2018-12-02T14:12:52.702Z,11.70
2018-12-02T14:17:31.527Z,11.70
2018-12-02T14:19:59.894Z,11.80
2018-12-02T14:22:28.345Z,11.70
2018-12-02T14:25:02.594Z,11.70
2018-12-02T14:27:25.073Z,11.70
2018-12-02T14:29:54.662Z,11.70
2018-12-02T14:32:24.025Z,11.80
2018-12-02T14:34:52.417Z,11.80
2018-12-02T14:37:20.744Z,11.80
2018-12-02T14:39:49.102Z,11.80
2018-12-02T14:42:17.431Z,11.70
2018-12-02T14:44:45.832Z,11.70
2018-12-02T14:47:14.144Z,11.70
2018-12-02T14:49:42.640Z,11.70
2018-12-02T14:52:11.070Z,11.70
2018-12-02T14:54:39.562Z,11.70
2018-12-02T14:57:07.942Z,11.70
2018-12-02T14:59:36.370Z,11.70
2018-12-02T15:02:05.110Z,11.70
2018-12-02T15:04:33.557Z,11.70
2018-12-02T15:07:01.932Z,11.70
2018-12-02T15:09:30.391Z,11.70
2018-12-02T15:11:59.790Z,11.70
2018-12-02T15:14:28.233Z,11.60
2018-12-02T15:16:56.738Z,11.60
2018-12-02T15:19:25.128Z,11.60
2018-12-02T15:21:53.501Z,11.60
2018-12-02T15:24:21.883Z,11.60
2018-12-02T15:26:50.227Z,11.60
2018-12-02T15:29:18.581Z,11.70
2018-12-02T15:31:46.913Z,11.60
2018-12-02T15:34:15.330Z,11.60
2018-12-02T15:36:43.665Z,11.70
2018-12-02T15:39:12.062Z,11.60
2018-12-02T15:41:40.387Z,11.70
2018-12-02T15:44:08.762Z,11.70
2018-12-02T15:46:37.066Z,11.70
2018-12-02T15:49:06.186Z,11.70
2018-12-02T15:51:35.828Z,11.70
2018-12-02T15:54:04.318Z,11.70
2018-12-02T16:13:36.756Z,11.70
2018-12-02T16:16:05.327Z,11.70
2018-12-02T16:18:33.587Z,11.70
2018-12-02T16:21:01.955Z,11.70
2018-12-02T16:23:30.250Z,11.70
2018-12-02T16:25:58.568Z,11.70
2018-12-02T16:28:26.849Z,11.70
2018-12-02T16:30:55.710Z,11.70
2018-12-02T16:33:24.405Z,11.70
2018-12-02T16:35:52.858Z,11.70
2018-12-02T16:38:21.188Z,11.70
2018-12-02T16:40:49.535Z,11.70
2018-12-02T16:43:18.816Z,11.70
2018-12-02T16:45:47.191Z,11.70
2018-12-02T16:48:15.479Z,11.70
2018-12-02T16:50:45.249Z,11.70
2018-12-02T16:53:23.519Z,11.70
2018-12-02T16:56:08.333Z,11.70
2018-12-02T16:59:12.812Z,11.70
2018-12-02T17:01:43.371Z,11.70
2018-12-02T17:04:11.778Z,11.70
2018-12-02T17:06:40.287Z,11.70
2018-12-02T17:09:11.291Z,11.70
2018-12-02T17:11:40.927Z,11.70
2018-12-02T17:14:09.319Z,11.80
2018-12-02T17:16:40.438Z,11.80
2018-12-02T17:19:08.900Z,11.70
2018-12-02T17:21:37.340Z,11.80
2018-12-02T17:24:07.353Z,11.80
2018-12-02T17:26:35.784Z,11.80
2018-12-02T17:29:04.529Z,11.80
2018-12-02T17:31:36.584Z,11.80
2018-12-02T17:34:05.413Z,11.80
2018-12-02T17:36:36.327Z,11.80
2018-12-02T17:39:11.644Z,11.80
2018-12-02T17:41:41.005Z,11.80
2018-12-02T17:44:10.290Z,11.80
2018-12-02T17:46:38.765Z,11.80
2018-12-02T17:49:07.154Z,11.80
2018-12-02T17:51:35.735Z,11.80
2018-12-02T17:54:04.029Z,11.80
2018-12-02T17:56:32.553Z,11.80
2018-12-02T17:59:00.873Z,11.80
2018-12-02T18:01:29.314Z,11.80
2018-12-02T18:03:58.307Z,11.80
2018-12-02T18:06:26.711Z,11.80
2018-12-02T18:08:55.155Z,11.80
2018-12-02T18:11:24.130Z,11.80
2018-12-02T18:13:52.768Z,11.90
2018-12-02T18:16:21.231Z,11.90
2018-12-02T18:18:50.626Z,11.90
2018-12-02T18:21:19.110Z,11.90
2018-12-02T18:23:47.489Z,11.90
2018-12-02T18:26:15.899Z,11.90
2018-12-02T18:28:44.376Z,11.90
2018-12-02T18:31:12.741Z,11.90
2018-12-02T18:33:41.124Z,11.90
2018-12-02T18:36:12.534Z,11.90
2018-12-02T18:38:42.672Z,11.90
2018-12-02T18:41:19.939Z,11.90
2018-12-02T18:43:48.318Z,11.90
2018-12-02T18:46:17.335Z,11.90
2018-12-02T18:48:45.767Z,11.90
2018-12-02T18:51:14.092Z,11.90
2018-12-02T18:53:42.802Z,11.90
2018-12-02T18:56:16.364Z,11.90
2018-12-02T18:58:39.887Z,12.00
2018-12-02T19:01:08.673Z,11.90
2018-12-02T19:03:37.026Z,11.90
2018-12-02T19:06:06.050Z,11.90
2018-12-02T19:08:34.436Z,11.90
2018-12-02T19:11:06.031Z,11.90
2018-12-02T19:13:36.789Z,11.90
2018-12-02T19:16:05.139Z,11.90
2018-12-02T19:18:34.516Z,11.80
2018-12-02T19:21:08.574Z,11.80
2018-12-02T19:23:42.627Z,11.80
2018-12-02T19:26:11.080Z,11.80
2018-12-02T19:28:42.336Z,11.80
2018-12-02T19:31:10.689Z,11.80
2018-12-02T19:36:49.427Z,11.80
2018-12-02T19:39:21.075Z,11.80
2018-12-02T19:41:49.478Z,11.80
2018-12-02T19:44:21.579Z,11.80
2018-12-02T19:46:49.981Z,11.80
2018-12-02T19:49:24.245Z,11.70
2018-12-02T19:51:53.920Z,11.70
2018-12-02T19:54:22.298Z,11.70
2018-12-02T19:57:03.225Z,11.70
2018-12-02T19:59:33.334Z,11.70
2018-12-02T20:02:01.696Z,11.70
2018-12-02T20:04:30.385Z,11.70
2018-12-02T20:06:58.801Z,11.70
2018-12-02T20:09:27.278Z,11.60
2018-12-02T20:12:03.928Z,11.60
2018-12-02T20:14:33.962Z,11.60
2018-12-02T20:17:03.350Z,11.60
2018-12-02T20:19:37.598Z,11.70
2018-12-02T20:22:10.051Z,11.60
2018-12-02T20:24:40.601Z,11.60
2018-12-02T20:27:09.509Z,11.60
2018-12-02T20:29:37.882Z,11.60
2018-12-02T20:32:17.693Z,11.60
2018-12-02T20:34:53.145Z,11.60
2018-12-02T20:37:22.107Z,11.60
2018-12-02T20:39:50.054Z,11.60
2018-12-02T20:42:18.497Z,11.60
2018-12-02T20:44:52.790Z,11.60
2018-12-02T20:47:17.232Z,11.60
2018-12-02T20:49:45.717Z,11.60
2018-12-02T20:52:14.826Z,11.50
2018-12-02T20:54:44.663Z,11.50
2018-12-02T20:57:13.062Z,11.50
2018-12-02T20:59:41.541Z,11.50
2018-12-02T21:02:09.931Z,11.50
2018-12-02T21:04:43.768Z,11.50
2018-12-02T21:07:12.743Z,11.50
2018-12-02T21:09:41.189Z,11.50
2018-12-02T21:12:14.599Z,11.50
2018-12-02T21:14:42.970Z,11.60
2018-12-02T21:17:11.307Z,11.60
2018-12-02T21:19:39.643Z,11.50
2018-12-02T21:22:07.968Z,11.60
2018-12-02T21:24:41.244Z,11.60
2018-12-02T21:27:17.246Z,11.60
2018-12-02T21:32:23.963Z,11.60
2018-12-02T21:34:52.561Z,11.60
2018-12-02T21:37:23.212Z,11.60
2018-12-02T21:39:52.363Z,11.60
2018-12-02T21:42:31.992Z,11.60
2018-12-02T21:45:00.399Z,11.50
2018-12-02T21:47:28.751Z,11.50
2018-12-02T21:49:57.451Z,11.60
2018-12-02T21:52:35.175Z,11.50
2018-12-02T21:55:03.972Z,11.50
2018-12-02T21:57:33.506Z,11.50
2018-12-02T22:00:02.185Z,11.50
2018-12-02T22:02:31.457Z,11.50
2018-12-02T22:05:07.047Z,11.50
2018-12-02T22:07:35.515Z,11.50
2018-12-02T22:10:04.760Z,11.50
2018-12-02T22:12:33.120Z,11.50
2018-12-02T22:15:01.427Z,11.50
2018-12-02T22:17:29.763Z,11.50
2018-12-02T22:19:58.113Z,11.50
2018-12-02T22:22:26.541Z,11.50
2018-12-02T22:25:00.430Z,11.50
2018-12-02T22:30:22.392Z,11.50
2018-12-02T22:32:50.745Z,11.50
2018-12-02T22:35:19.149Z,11.50
2018-12-02T22:37:47.788Z,11.60
2018-12-02T22:40:22.600Z,11.60
2018-12-02T22:42:51.623Z,11.60
2018-12-02T22:45:22.269Z,11.60
2018-12-02T22:47:51.889Z,11.60
2018-12-02T22:50:21.011Z,11.60
2018-12-02T22:52:50.455Z,11.60
2018-12-02T22:55:18.848Z,11.60
2018-12-02T22:57:47.247Z,11.60
2018-12-02T23:00:25.682Z,11.60
2018-12-02T23:02:59.743Z,11.60
2018-12-02T23:05:28.075Z,11.60
2018-12-02T23:07:56.465Z,11.60
2018-12-02T23:10:24.828Z,11.60
2018-12-02T23:12:54.463Z,11.60
2018-12-02T23:15:21.494Z,11.60
2018-12-02T23:17:49.811Z,11.60
2018-12-02T23:20:18.179Z,11.70
2018-12-02T23:22:46.481Z,11.70
2018-12-02T23:25:15.481Z,11.70
2018-12-02T23:27:43.941Z,11.70
2018-12-02T23:30:17.124Z,11.70
2018-12-02T23:32:45.535Z,11.70
2018-12-02T23:35:13.845Z,11.70
2018-12-02T23:37:42.475Z,11.70
2018-12-02T23:40:13.571Z,11.70
2018-12-02T23:42:41.943Z,11.70
2018-12-02T23:45:12.059Z,11.70
2018-12-02T23:47:40.928Z,11.70
2018-12-02T23:50:11.231Z,11.80
2018-12-02T23:52:39.545Z,11.80
2018-12-02T23:55:10.605Z,11.80
2018-12-02T23:57:41.166Z,11.80
